Terminal Aerodrome Forecast
Issued by NWS

Home | Current Version | Previous Version | Text Only | Print | Product List | Glossary Off
Versions: 1 2 3 4 5 6 7 8 9 10 11 12 13

638
FTUS43 KIWX 282339
TAFSBN
TAF
KSBN 282339Z 2900/2924 03010KT P6SM VCSH SCT020 OVC040
     FM290400 03010KT 5SM -SHRA BR OVC015
      TEMPO 2906/2910 6SM BR OVC035
     FM291300 04010KT 5SM BR VCSH OVC010
     FM291400 05014G20KT P6SM VCSH OVC015
     FM292000 04012KT P6SM BKN020=

USA.gov is the U.S. government's official web portal to all federal, state and local government web resources and services.